Time;durP1;ratioP1;P1;durP2;ratioP2;P2;SDS_P1;SDS_P2;PMS_P1;PMS_P2;Temp;Humidity;BMP_temperature;BMP_pressure;BME280_temperature;BME280_humidity;BME280_pressure;Samples;Min_cycle;Max_cycle;Signal;HPM_P1;HPM_P2
2023/09/21 00:02:30;;;;;;;;;;;;;;;12.20;61.49;100379.50;104622;1292;61364;-54
2023/09/21 00:05:23;;;;;;;;;;;;;;;12.13;61.75;100373.98;104677;1292;61053;-57
2023/09/21 00:08:09;;;;;;;;;;;;;;;12.05;61.61;100372.98;104731;1292;73666;-58
2023/09/21 00:10:56;;;;;;;;;;;;;;;12.00;62.05;100373.63;104679;1293;67521;-55
2023/09/21 00:13:42;;;;;;;;;;;;;;;11.97;61.74;100366.30;104655;1292;71632;-56
2023/09/21 00:16:28;;;;;;;;;;;;;;;11.91;61.54;100367.33;104676;1292;62514;-56
2023/09/21 00:19:16;;;;;;;;;;;;;;;11.88;62.04;100369.65;104675;1295;61127;-52
2023/09/21 00:22:04;;;;;;;;;;;;;;;11.82;62.32;100371.33;104693;1292;75500;-55
2023/09/21 00:24:52;;;;;;;;;;;;;;;11.77;62.60;100368.19;104645;1292;68568;-55
2023/09/21 00:27:39;;;;;;;;;;;;;;;11.74;62.85;100364.98;104673;1292;71282;-56
2023/09/21 00:30:25;;;;;;;;;;;;;;;11.73;62.78;100371.20;104657;1292;61502;-55
2023/09/21 00:33:11;;;;;;;;;;;;;;;11.70;63.04;100367.29;104690;1291;61195;-56
2023/09/21 00:36:13;;;;;;;;;;;;;;;11.67;62.22;100364.27;104649;1297;75934;-56
2023/09/21 00:38:59;;;;;;;;;;;;;;;11.63;62.49;100363.67;104724;1292;67300;-56
2023/09/21 00:41:45;;;;;;;;;;;;;;;11.63;62.66;100359.02;104605;1292;71267;-56
2023/09/21 00:44:32;;;;;;;;;;;;;;;11.64;63.28;100353.12;104674;1292;61151;-56
2023/09/21 00:47:18;;;;;;;;;;;;;;;11.66;63.51;100348.93;104692;1292;61273;-56
2023/09/21 00:50:10;;;;;;;;;;;;;;;11.67;63.58;100348.71;104726;1295;75449;-55
2023/09/21 00:52:57;;;;;;;;;;;;;;;11.67;63.26;100347.17;104683;1293;67587;-56
2023/09/21 00:55:53;;;;;;;;;;;;;;;11.63;63.13;100342.44;104670;1292;74012;-56
2023/09/21 00:58:44;;;;;;;;;;;;;;;11.60;63.09;100343.55;104664;1292;59674;-55
2023/09/21 01:01:31;;;;;;;;;;;;;;;11.54;62.95;100334.88;104703;1292;61520;-56
2023/09/21 01:04:17;;;;;;;;;;;;;;;11.49;63.31;100329.82;104703;1292;73327;-55
2023/09/21 01:07:11;;;;;;;;;;;;;;;11.49;63.47;100327.73;104673;1292;67163;-55
2023/09/21 01:09:57;;;;;;;;;;;;;;;11.52;63.47;100322.68;104730;1292;77390;-52
2023/09/21 01:12:44;;;;;;;;;;;;;;;11.54;63.58;100324.17;104669;1292;61446;-54
2023/09/21 01:15:31;;;;;;;;;;;;;;;11.56;63.48;100321.37;104650;1292;61165;-56
2023/09/21 01:18:19;;;;;;;;;;;;;;;11.59;63.31;100318.53;104708;1296;76040;-55
2023/09/21 01:21:06;;;;;;;;;;;;;;;11.60;63.39;100318.48;104685;1292;69703;-55
2023/09/21 01:23:53;;;;;;;;;;;;;;;11.60;64.00;100318.15;104839;1293;317280;-55
2023/09/21 01:26:40;;;;;;;;;;;;;;;11.61;63.94;100314.35;106018;1294;58921;-55
2023/09/21 01:29:26;;;;;;;;;;;;;;;11.62;63.77;100311.55;105860;1292;59712;-56
2023/09/21 01:32:12;;;;;;;;;;;;;;;11.64;64.13;100308.40;104618;1294;73192;-55
2023/09/21 01:34:58;;;;;;;;;;;;;;;11.67;63.44;100311.09;104647;1292;67133;-55
2023/09/21 01:37:45;;;;;;;;;;;;;;;11.69;63.79;100306.55;104723;1292;71177;-56
2023/09/21 01:40:32;;;;;;;;;;;;;;;11.69;64.52;100308.44;104677;1292;61215;-56
2023/09/21 01:43:18;;;;;;;;;;;;;;;11.70;64.53;100306.86;104654;1294;63004;-54
2023/09/21 01:46:05;;;;;;;;;;;;;;;11.70;64.66;100301.16;105974;1292;73868;-55
2023/09/21 01:48:51;;;;;;;;;;;;;;;11.73;64.33;100301.44;106003;1292;67263;-57
2023/09/21 01:51:38;;;;;;;;;;;;;;;11.73;64.17;100298.31;106001;1292;71287;-56
2023/09/21 01:54:24;;;;;;;;;;;;;;;11.69;64.08;100300.16;105950;1293;59218;-56
2023/09/21 01:57:10;;;;;;;;;;;;;;;11.65;64.24;100300.45;106052;1292;58927;-57
2023/09/21 01:59:56;;;;;;;;;;;;;;;11.61;64.05;100297.42;105983;1294;73141;-56
2023/09/21 02:02:41;;;;;;;;;;;;;;;11.59;64.13;100295.20;105316;1292;67380;-56
2023/09/21 02:05:28;;;;;;;;;;;;;;;11.59;64.27;100298.16;104639;1292;72206;-56
2023/09/21 02:08:19;;;;;;;;;;;;;;;11.57;64.67;100298.20;104744;1292;61517;-56
2023/09/21 02:11:05;;;;;;;;;;;;;;;11.57;64.65;100290.95;104775;1292;61450;-55
2023/09/21 02:13:51;;;;;;;;;;;;;;;11.58;64.72;100286.95;104736;1291;74196;-55
2023/09/21 02:16:38;;;;;;;;;;;;;;;11.60;64.65;100285.36;104826;1292;68028;-55
2023/09/21 02:19:26;;;;;;;;;;;;;;;11.61;65.37;100286.19;104750;1296;72937;-55
2023/09/21 02:22:12;;;;;;;;;;;;;;;11.66;65.59;100281.59;104784;1291;61296;-55
2023/09/21 02:24:58;;;;;;;;;;;;;;;11.68;65.00;100282.05;104759;1296;61019;-56
2023/09/21 02:27:48;;;;;;;;;;;;;;;11.70;65.17;100278.73;104743;1292;73164;-56
2023/09/21 02:30:36;;;;;;;;;;;;;;;11.72;65.48;100275.39;104808;1292;70040;-55
2023/09/21 02:33:22;;;;;;;;;;;;;;;11.72;65.61;100277.10;104824;1292;75452;-56
2023/09/21 02:36:13;;;;;;;;;;;;;;;11.73;65.23;100275.20;104816;1292;61378;-55
2023/09/21 02:38:59;;;;;;;;;;;;;;;11.72;65.19;100271.76;104767;1295;61134;-54
2023/09/21 02:41:45;;;;;;;;;;;;;;;11.73;65.61;100272.59;104786;1292;74068;-56
2023/09/21 02:44:32;;;;;;;;;;;;;;;11.74;65.47;100266.69;104745;1291;67206;-56
2023/09/21 02:47:19;;;;;;;;;;;;;;;11.74;65.46;100266.52;104786;1291;71170;-55
2023/09/21 02:50:15;;;;;;;;;;;;;;;11.74;65.54;100275.16;104750;1291;61200;-55
2023/09/21 02:53:04;;;;;;;;;;;;;;;11.75;65.13;100272.73;104843;1291;59250;-56
2023/09/21 02:55:50;;;;;;;;;;;;;;;11.74;65.78;100265.82;104695;1291;76134;-56
2023/09/21 02:58:36;;;;;;;;;;;;;;;11.74;65.62;100267.71;104759;1292;67909;-55
2023/09/21 03:01:23;;;;;;;;;;;;;;;11.74;65.27;100264.27;104805;1291;71229;-56
2023/09/21 03:04:10;;;;;;;;;;;;;;;11.74;65.78;100258.58;104779;1292;61142;-55
2023/09/21 03:06:57;;;;;;;;;;;;;;;11.75;66.07;100260.81;104835;1291;62289;-56
2023/09/21 03:09:43;;;;;;;;;;;;;;;11.75;65.30;100256.33;104748;1292;73287;-55
2023/09/21 03:12:29;;;;;;;;;;;;;;;11.73;65.73;100254.98;104817;1292;67270;-55
2023/09/21 03:15:18;;;;;;;;;;;;;;;11.74;65.60;100256.34;104627;1291;71275;-55
2023/09/21 03:18:04;;;;;;;;;;;;;;;11.74;66.05;100254.10;97406;1295;5003459;-56
2023/09/21 03:20:52;;;;;;;;;;;;;;;11.73;65.88;100252.05;104695;1292;62004;-54
2023/09/21 03:23:37;;;;;;;;;;;;;;;11.73;65.91;100250.48;104849;1292;73509;-56
2023/09/21 03:26:23;;;;;;;;;;;;;;;11.73;65.89;100250.85;104781;1291;67107;-55
2023/09/21 03:29:12;;;;;;;;;;;;;;;11.72;65.94;100248.44;104847;1292;71250;-56
2023/09/21 03:31:59;;;;;;;;;;;;;;;11.73;66.14;100245.31;104803;1296;61156;-55
2023/09/21 03:34:46;;;;;;;;;;;;;;;11.74;66.22;100241.50;104853;1291;60862;-56
2023/09/21 03:37:32;;;;;;;;;;;;;;;11.72;65.98;100234.98;104787;1292;73241;-56
2023/09/21 03:40:19;;;;;;;;;;;;;;;11.71;66.28;100233.80;104827;1291;68186;-55
2023/09/21 03:43:06;;;;;;;;;;;;;;;11.71;66.21;100234.66;104758;1296;72361;-55
2023/09/21 03:45:53;;;;;;;;;;;;;;;11.71;65.76;100230.36;104662;1291;61372;-55
2023/09/21 03:48:39;;;;;;;;;;;;;;;11.65;65.91;100233.27;104826;1292;61040;-55
2023/09/21 03:51:25;;;;;;;;;;;;;;;11.61;66.40;100231.98;104820;1291;73320;-56
2023/09/21 03:54:15;;;;;;;;;;;;;;;11.59;66.21;100233.08;104805;1292;67423;-55
2023/09/21 03:57:02;;;;;;;;;;;;;;;11.56;66.38;100235.23;104749;1292;72075;-55
2023/09/21 03:59:48;;;;;;;;;;;;;;;11.52;66.43;100231.89;104802;1291;61391;-55
2023/09/21 04:02:34;;;;;;;;;;;;;;;11.48;66.51;100229.90;104716;1292;61606;-55
2023/09/21 04:05:23;;;;;;;;;;;;;;;11.45;66.87;100228.44;104816;1295;74359;-55
2023/09/21 04:08:09;;;;;;;;;;;;;;;11.43;66.72;100222.31;104764;1292;67338;-54
2023/09/21 04:10:59;;;;;;;;;;;;;;;11.40;66.58;100220.83;104711;1291;71170;-56
2023/09/21 04:13:45;;;;;;;;;;;;;;;11.37;66.32;100219.35;106127;1291;59005;-57
2023/09/21 04:16:31;;;;;;;;;;;;;;;11.35;66.57;100217.84;106095;1291;59850;-56
2023/09/21 04:19:27;;;;;;;;;;;;;;;11.33;66.51;100214.27;106073;1291;75413;-56
2023/09/21 04:22:12;;;;;;;;;;;;;;;11.32;66.79;100211.70;106112;1291;68184;-57
2023/09/21 04:25:01;;;;;;;;;;;;;;;11.32;66.52;100211.56;106119;1292;72553;-56
2023/09/21 04:27:48;;;;;;;;;;;;;;;11.27;66.79;100210.10;106032;1291;59174;-56
2023/09/21 04:30:34;;;;;;;;;;;;;;;11.26;66.61;100209.80;106123;1292;58632;-56
2023/09/21 04:33:20;;;;;;;;;;;;;;;11.25;66.78;100208.61;106134;1291;74481;-56
2023/09/21 04:36:07;;;;;;;;;;;;;;;11.22;67.04;100206.96;106071;1292;67375;-56
2023/09/21 04:38:52;;;;;;;;;;;;;;;11.22;66.99;100204.55;105945;1291;71184;-55
2023/09/21 04:41:39;;;;;;;;;;;;;;;11.22;66.80;100200.92;104716;1292;62192;-56
2023/09/21 04:44:26;;;;;;;;;;;;;;;11.22;66.92;100199.02;104782;1291;59289;-56
2023/09/21 04:47:12;;;;;;;;;;;;;;;11.23;66.89;100197.45;104819;1295;75961;-55
2023/09/21 04:49:58;;;;;;;;;;;;;;;11.20;66.84;100198.38;104746;1292;67225;-55
2023/09/21 04:52:48;;;;;;;;;;;;;;;11.16;66.65;100198.65;104772;1291;71338;-56
2023/09/21 04:55:36;;;;;;;;;;;;;;;11.13;67.98;100197.86;104755;1291;61151;-54
2023/09/21 04:58:23;;;;;;;;;;;;;;;11.14;67.49;100193.36;104796;1292;61257;-57
2023/09/21 05:01:10;;;;;;;;;;;;;;;11.17;67.82;100190.16;104826;1295;79020;-57
2023/09/21 05:03:56;;;;;;;;;;;;;;;11.21;67.68;100192.48;104791;1292;71443;-55
2023/09/21 05:06:43;;;;;;;;;;;;;;;11.25;68.01;100192.39;104715;1291;72081;-56
2023/09/21 05:09:29;;;;;;;;;;;;;;;11.34;67.96;100192.87;104768;1292;60953;-56
2023/09/21 05:12:18;;;;;;;;;;;;;;;11.40;68.34;100192.34;104841;1291;61449;-56
2023/09/21 05:15:06;;;;;;;;;;;;;;;11.50;68.62;100191.88;104784;1292;74019;-56
2023/09/21 05:17:52;;;;;;;;;;;;;;;11.65;69.11;100192.00;105890;1291;67469;-55
2023/09/21 05:20:38;;;;;;;;;;;;;;;11.78;69.09;100189.23;104632;1292;304267;-56
2023/09/21 05:23:24;;;;;;;;;;;;;;;11.92;69.03;100191.30;104855;1292;61140;-56
2023/09/21 05:26:11;;;;;;;;;;;;;;;12.06;69.25;100189.98;104868;1292;61198;-57
2023/09/21 05:28:57;;;;;;;;;;;;;;;12.19;69.33;100190.64;104816;1291;73246;-56
2023/09/21 05:31:43;;;;;;;;;;;;;;;12.33;69.31;100189.73;104804;1294;67136;-56
2023/09/21 05:34:29;;;;;;;;;;;;;;;12.45;69.54;100190.56;104823;1292;71302;-55
2023/09/21 05:37:15;;;;;;;;;;;;;;;12.61;69.65;100188.67;104774;1292;59108;-55
2023/09/21 05:40:05;;;;;;;;;;;;;;;12.79;69.58;100193.13;104836;1292;61496;-56
2023/09/21 05:42:51;;;;;;;;;;;;;;;12.97;69.74;100190.46;104833;1292;75417;-57
2023/09/21 05:45:37;;;;;;;;;;;;;;;13.16;69.68;100193.10;104749;1292;70004;-56
2023/09/21 05:48:24;;;;;;;;;;;;;;;13.38;69.72;100192.20;104781;1292;75343;-57
2023/09/21 05:51:11;;;;;;;;;;;;;;;13.66;69.66;100187.73;104836;1292;61158;-56
2023/09/21 05:53:57;;;;;;;;;;;;;;;13.98;70.40;100188.65;104850;1292;59243;-57
2023/09/21 05:56:43;;;;;;;;;;;;;;;14.31;69.71;100190.33;104775;1292;76024;-57
2023/09/21 05:59:31;;;;;;;;;;;;;;;14.60;69.68;100188.02;104827;1292;68952;-57
2023/09/21 06:02:17;;;;;;;;;;;;;;;14.90;69.63;100185.58;104860;1291;71266;-60
2023/09/21 06:05:04;;;;;;;;;;;;;;;15.27;69.80;100183.52;104811;1292;60574;-57
2023/09/21 06:07:50;;;;;;;;;;;;;;;15.63;69.48;100188.77;104784;1292;61157;-57
2023/09/21 06:10:36;;;;;;;;;;;;;;;15.99;69.50;100187.84;104785;1291;75227;-56
2023/09/21 06:13:25;;;;;;;;;;;;;;;16.30;69.12;100187.27;104788;1292;69940;-57
2023/09/21 06:16:11;;;;;;;;;;;;;;;16.59;68.81;100186.95;104774;1296;71789;-57
2023/09/21 06:18:57;;;;;;;;;;;;;;;16.87;68.72;100183.52;104784;1292;61140;-57
2023/09/21 06:21:47;;;;;;;;;;;;;;;17.17;68.85;100180.77;104666;1292;62727;-57
2023/09/21 06:24:33;;;;;;;;;;;;;;;17.49;68.70;100178.06;104691;1292;73153;-58
2023/09/21 06:27:19;;;;;;;;;;;;;;;17.76;68.85;100174.22;104759;1294;67308;-57
2023/09/21 06:30:07;;;;;;;;;;;;;;;18.02;68.82;100173.55;104782;1296;74867;-57
2023/09/21 06:32:55;;;;;;;;;;;;;;;18.33;68.41;100170.48;105042;1292;61275;-56
2023/09/21 06:35:42;;;;;;;;;;;;;;;18.49;68.28;100168.14;104823;1292;61166;-57
2023/09/21 06:38:28;;;;;;;;;;;;;;;18.71;68.53;100165.02;104791;1291;75190;-56
2023/09/21 06:41:14;;;;;;;;;;;;;;;19.01;68.48;100166.23;104828;1291;66741;-57
2023/09/21 06:44:00;;;;;;;;;;;;;;;19.40;68.67;100164.95;104841;1292;70359;-57
2023/09/21 06:46:47;;;;;;;;;;;;;;;19.75;68.48;100160.44;104791;1292;61374;-57
2023/09/21 06:49:35;;;;;;;;;;;;;;;20.08;68.36;100153.98;104798;1292;61441;-57
2023/09/21 06:52:22;;;;;;;;;;;;;;;20.43;68.13;100156.30;104813;1292;73275;-56
2023/09/21 06:55:09;;;;;;;;;;;;;;;20.65;67.78;100158.91;104796;1292;67881;-56
2023/09/21 06:57:55;;;;;;;;;;;;;;;20.85;67.79;100158.65;105721;1291;72916;-57
2023/09/21 07:00:42;;;;;;;;;;;;;;;20.80;66.34;100155.46;104605;1291;61377;-57
2023/09/21 07:03:28;;;;;;;;;;;;;;;20.68;67.50;100159.22;105952;1291;59792;-57
2023/09/21 07:06:19;;;;;;;;;;;;;;;20.75;67.09;100158.05;104814;1292;74284;-57
2023/09/21 07:09:05;;;;;;;;;;;;;;;20.82;67.34;100158.48;104835;1292;67253;-56
2023/09/21 07:11:51;;;;;;;;;;;;;;;20.81;67.02;100153.95;104778;1291;71286;-57
2023/09/21 07:14:37;;;;;;;;;;;;;;;20.87;67.28;100154.48;104775;1292;61250;-57
2023/09/21 07:17:23;;;;;;;;;;;;;;;20.95;66.29;100158.66;104847;1292;61372;-56
2023/09/21 07:20:10;;;;;;;;;;;;;;;21.02;66.75;100156.45;104826;1292;74343;-57
2023/09/21 07:22:57;;;;;;;;;;;;;;;21.30;67.57;100154.23;104764;1292;69080;-57
2023/09/21 07:25:43;;;;;;;;;;;;;;;21.79;67.88;100150.61;105349;1292;71482;-58
2023/09/21 07:28:29;;;;;;;;;;;;;;;22.28;67.60;100151.34;104795;1292;62591;-57
2023/09/21 07:31:15;;;;;;;;;;;;;;;22.83;66.56;100152.94;104823;1292;61160;-58
2023/09/21 07:34:02;;;;;;;;;;;;;;;22.90;65.02;100150.70;104846;1292;76682;-57
2023/09/21 07:36:48;;;;;;;;;;;;;;;23.23;66.89;100152.06;104814;1295;67162;-57
2023/09/21 07:39:34;;;;;;;;;;;;;;;23.64;67.08;100151.84;104730;1292;71241;-57
2023/09/21 07:42:21;;;;;;;;;;;;;;;24.14;67.21;100149.14;104766;1291;62333;-57
2023/09/21 07:45:07;;;;;;;;;;;;;;;24.61;66.45;100146.50;104788;1291;64969;-58
2023/09/21 07:47:54;;;;;;;;;;;;;;;25.23;66.56;100144.18;104708;1292;73291;-58
2023/09/21 07:50:40;;;;;;;;;;;;;;;25.63;66.13;100143.73;104786;1292;67289;-58
2023/09/21 07:53:27;;;;;;;;;;;;;;;26.04;66.29;100138.60;104779;1296;71300;-58
2023/09/21 07:56:13;;;;;;;;;;;;;;;26.54;66.65;100131.47;104815;1292;61230;-56
2023/09/21 07:59:00;;;;;;;;;;;;;;;27.26;66.50;100132.77;104803;1292;62948;-58
2023/09/21 08:01:48;;;;;;;;;;;;;;;27.91;66.52;100132.09;104780;1291;75385;-57
2023/09/21 08:04:35;;;;;;;;;;;;;;;28.40;65.78;100137.02;104766;1292;68035;-58
2023/09/21 08:07:26;;;;;;;;;;;;;;;28.33;65.63;100132.70;104737;1291;71188;-57
2023/09/21 08:10:12;;;;;;;;;;;;;;;28.79;66.07;100125.14;104788;1297;61105;-58
2023/09/21 08:12:58;;;;;;;;;;;;;;;29.36;66.07;100117.34;104758;1291;63236;-58
2023/09/21 08:15:44;;;;;;;;;;;;;;;29.81;65.86;100121.73;104784;1292;75960;-58
2023/09/21 08:18:30;;;;;;;;;;;;;;;29.99;65.73;100116.84;104812;1292;67580;-57
2023/09/21 08:21:17;;;;;;;;;;;;;;;30.19;65.27;100114.15;104844;1292;71190;-57
2023/09/21 08:24:03;;;;;;;;;;;;;;;30.37;65.55;100112.61;104800;1292;61928;-58
2023/09/21 08:26:49;;;;;;;;;;;;;;;30.66;65.15;100114.06;104828;1291;61634;-59
2023/09/21 08:29:36;;;;;;;;;;;;;;;30.47;61.77;100108.47;104816;1291;73259;-57
2023/09/21 08:32:22;;;;;;;;;;;;;;;30.25;62.25;100110.11;104816;1292;71625;-56
2023/09/21 08:35:08;;;;;;;;;;;;;;;29.76;61.39;100106.61;104744;1291;73729;-58
2023/09/21 08:37:55;;;;;;;;;;;;;;;29.82;62.33;100106.52;104798;1292;61282;-58
2023/09/21 08:40:43;;;;;;;;;;;;;;;30.04;61.64;100105.30;104830;1292;61285;-58
2023/09/21 08:43:30;;;;;;;;;;;;;;;30.32;61.50;100108.20;104758;1292;73239;-57
2023/09/21 08:46:16;;;;;;;;;;;;;;;30.43;56.36;100107.15;104829;1292;67907;-58
2023/09/21 08:49:03;;;;;;;;;;;;;;;30.49;59.45;100110.43;104798;1291;71107;-58
2023/09/21 08:51:51;;;;;;;;;;;;;;;30.93;59.79;100104.52;104798;1297;61244;-58
2023/09/21 08:54:42;;;;;;;;;;;;;;;31.61;59.28;100104.81;104729;1295;61982;-57
2023/09/21 08:57:30;;;;;;;;;;;;;;;32.12;57.97;100102.14;104723;1291;74044;-58
2023/09/21 09:00:17;;;;;;;;;;;;;;;32.20;56.63;100098.17;104673;1292;67161;-61
2023/09/21 09:03:03;;;;;;;;;;;;;;;32.49;57.08;100101.44;104665;1292;71906;-57
2023/09/21 09:05:49;;;;;;;;;;;;;;;32.72;56.64;100097.81;104675;1292;61244;-57
2023/09/21 09:08:35;;;;;;;;;;;;;;;33.05;54.45;100093.56;104857;1292;61507;-57
2023/09/21 09:11:31;;;;;;;;;;;;;;;33.39;54.47;100091.10;104765;1292;73799;-58
2023/09/21 09:14:18;;;;;;;;;;;;;;;33.61;54.02;100087.40;104798;1291;70167;-58
2023/09/21 09:17:11;;;;;;;;;;;;;;;34.00;53.24;100081.80;106082;1294;71391;-59
2023/09/21 09:19:58;;;;;;;;;;;;;;;33.74;53.11;100082.52;106127;1292;59000;-59
2023/09/21 09:22:44;;;;;;;;;;;;;;;33.49;50.90;100078.13;106064;1291;59191;-59
2023/09/21 09:25:30;;;;;;;;;;;;;;;33.22;51.74;100078.90;106147;1291;73425;-59
2023/09/21 09:28:16;;;;;;;;;;;;;;;33.46;52.01;100077.80;106092;1291;68399;-59
2023/09/21 09:31:06;;;;;;;;;;;;;;;33.99;51.64;100068.85;106109;1291;73290;-58
2023/09/21 09:33:55;;;;;;;;;;;;;;;33.62;49.35;100066.80;106119;1291;59458;-59
2023/09/21 09:36:41;;;;;;;;;;;;;;;32.97;48.40;100063.30;106079;1291;59999;-59
2023/09/21 09:39:27;;;;;;;;;;;;;;;33.18;48.64;100054.68;106148;1291;74328;-59
2023/09/21 09:42:13;;;;;;;;;;;;;;;33.75;47.91;100054.87;106126;1292;67483;-59
2023/09/21 09:45:03;;;;;;;;;;;;;;;33.98;47.51;100051.30;105330;1291;72561;-58
2023/09/21 09:47:54;;;;;;;;;;;;;;;33.89;46.92;100050.63;104816;1292;61139;-58
2023/09/21 09:50:41;;;;;;;;;;;;;;;33.86;46.09;100049.80;104837;1291;61379;-56
2023/09/21 09:53:28;;;;;;;;;;;;;;;33.50;43.25;100051.00;104878;1292;73282;-57
2023/09/21 09:56:16;;;;;;;;;;;;;;;32.98;42.63;100045.48;104855;1292;69189;-57
2023/09/21 09:59:04;;;;;;;;;;;;;;;33.08;45.55;100040.43;104773;1292;71414;-57
2023/09/21 10:01:50;;;;;;;;;;;;;;;33.68;44.28;100035.31;104791;1292;61195;-57
2023/09/21 10:04:38;;;;;;;;;;;;;;;34.36;41.46;100037.11;104800;1292;61112;-57
2023/09/21 10:07:24;;;;;;;;;;;;;;;35.05;42.54;100035.80;104836;1292;76945;-58
2023/09/21 10:10:15;;;;;;;;;;;;;;;35.44;39.14;100030.32;104837;1292;69974;-58
2023/09/21 10:13:01;;;;;;;;;;;;;;;36.03;42.95;100030.13;104820;1292;72679;-59
2023/09/21 10:15:48;;;;;;;;;;;;;;;37.19;41.56;100027.98;104790;1292;61166;-58
2023/09/21 10:18:36;;;;;;;;;;;;;;;38.02;40.69;100026.85;104807;1292;61384;-59
2023/09/21 10:21:23;;;;;;;;;;;;;;;38.07;36.48;100025.79;104828;1292;75103;-59
2023/09/21 10:24:12;;;;;;;;;;;;;;;38.20;39.63;100015.52;104777;1292;67250;-59
2023/09/21 10:27:03;;;;;;;;;;;;;;;38.93;38.15;100018.11;104856;1295;74990;-59
2023/09/21 10:29:54;;;;;;;;;;;;;;;39.34;37.19;100011.29;104768;1292;61354;-58
2023/09/21 10:32:44;;;;;;;;;;;;;;;39.55;36.51;100011.77;104781;1292;62080;-59
2023/09/21 10:35:33;;;;;;;;;;;;;;;39.24;34.01;100005.70;104725;1292;73352;-58
2023/09/21 10:38:19;;;;;;;;;;;;;;;39.47;35.79;100003.00;104809;1292;69120;-58
2023/09/21 10:41:23;;;;;;;;;;;;;;;39.88;35.80;99997.02;104749;1292;74426;-58
2023/09/21 10:44:11;;;;;;;;;;;;;;;39.14;31.72;99993.98;104741;1295;61479;-57
2023/09/21 10:46:57;;;;;;;;;;;;;;;39.05;31.52;99991.01;104743;1292;59465;-58
2023/09/21 10:49:44;;;;;;;;;;;;;;;39.15;32.33;99985.23;104689;1292;78043;-59
2023/09/21 10:52:31;;;;;;;;;;;;;;;39.38;30.36;99989.58;104663;1292;67812;-59
2023/09/21 10:55:18;;;;;;;;;;;;;;;39.57;31.27;99983.42;104778;1292;75326;-59
2023/09/21 10:58:05;;;;;;;;;;;;;;;39.95;31.27;99985.14;104746;1292;61265;-59
2023/09/21 11:00:52;;;;;;;;;;;;;;;40.46;31.31;99982.03;104743;1292;61158;-59
2023/09/21 11:03:38;;;;;;;;;;;;;;;41.05;31.25;99976.69;104738;1297;78908;-58
2023/09/21 11:06:25;;;;;;;;;;;;;;;41.25;29.69;99972.12;104778;1291;67464;-59
2023/09/21 11:09:11;;;;;;;;;;;;;;;41.51;30.81;99972.67;104788;1296;76878;-59
2023/09/21 11:11:57;;;;;;;;;;;;;;;42.25;29.73;99963.55;104685;1292;61595;-59
2023/09/21 11:14:44;;;;;;;;;;;;;;;42.17;27.76;99963.80;104736;1292;61304;-58
2023/09/21 11:17:30;;;;;;;;;;;;;;;42.07;28.71;99964.20;104813;1292;74932;-60
2023/09/21 11:20:20;;;;;;;;;;;;;;;41.88;25.27;99966.98;104798;1292;69869;-59
2023/09/21 11:23:07;;;;;;;;;;;;;;;41.00;27.44;99964.92;104821;1295;72636;-60
2023/09/21 11:25:53;;;;;;;;;;;;;;;41.40;27.32;99962.98;104760;1292;62080;-60
2023/09/21 11:28:40;;;;;;;;;;;;;;;40.81;26.58;99960.66;104801;1292;61161;-60
2023/09/21 11:31:30;;;;;;;;;;;;;;;41.01;26.90;99951.38;104813;1292;74936;-60
2023/09/21 11:34:16;;;;;;;;;;;;;;;41.42;25.86;99950.58;104695;1292;70355;-59
2023/09/21 11:37:04;;;;;;;;;;;;;;;41.04;25.49;99947.56;104732;1292;72057;-60
2023/09/21 11:39:51;;;;;;;;;;;;;;;39.89;25.01;99939.60;104764;1292;61419;-60
2023/09/21 11:42:40;;;;;;;;;;;;;;;40.41;26.25;99935.80;104846;1291;61241;-60
2023/09/21 11:45:27;;;;;;;;;;;;;;;41.04;25.79;99933.96;104814;1292;73469;-60
2023/09/21 11:48:13;;;;;;;;;;;;;;;41.11;24.62;99929.77;104629;1292;67201;-59
2023/09/21 11:50:57;;;;;;;;;;;;;;;40.90;25.31;99927.66;104722;1295;74032;-59
2023/09/21 11:53:42;;;;;;;;;;;;;;;41.43;24.38;99925.58;104667;1292;61597;-59
2023/09/21 11:56:26;;;;;;;;;;;;;;;40.44;23.89;99921.29;104697;1292;61278;-58
2023/09/21 11:59:11;;;;;;;;;;;;;;;39.42;23.90;99912.80;104684;1292;73227;-59
2023/09/21 12:01:56;;;;;;;;;;;;;;;38.17;24.30;99906.98;104727;1291;67264;-58
2023/09/21 12:04:43;;;;;;;;;;;;;;;38.22;25.02;99906.48;104723;1291;71198;-59
2023/09/21 12:07:28;;;;;;;;;;;;;;;39.29;25.33;99903.74;104665;1292;61281;-58
2023/09/21 12:10:14;;;;;;;;;;;;;;;40.42;24.59;99901.98;104673;1291;61515;-57
2023/09/21 12:12:58;;;;;;;;;;;;;;;40.49;24.36;99901.39;104833;1291;73190;-58
2023/09/21 12:15:43;;;;;;;;;;;;;;;40.66;24.82;99897.84;104854;1292;68481;-58
2023/09/21 12:18:29;;;;;;;;;;;;;;;41.09;24.00;99889.52;104737;1295;71385;-59
2023/09/21 12:21:19;;;;;;;;;;;;;;;41.11;24.94;99884.61;104763;1292;61273;-59
2023/09/21 12:24:06;;;;;;;;;;;;;;;41.36;24.36;99886.20;104719;1292;61937;-59
2023/09/21 12:26:53;;;;;;;;;;;;;;;41.38;24.20;99883.15;104806;1295;75294;-56
2023/09/21 12:29:39;;;;;;;;;;;;;;;41.16;23.92;99882.08;104750;1292;67047;-56
2023/09/21 12:32:27;;;;;;;;;;;;;;;40.92;24.17;99877.22;104724;1292;71352;-58
2023/09/21 12:35:17;;;;;;;;;;;;;;;40.67;23.70;99874.77;104785;1292;61137;-57
2023/09/21 12:38:03;;;;;;;;;;;;;;;39.88;23.40;99873.00;104796;1294;61148;-57
2023/09/21 12:40:52;;;;;;;;;;;;;;;39.56;23.65;99867.55;104762;1292;78416;-58
2023/09/21 12:43:38;;;;;;;;;;;;;;;39.28;23.74;99867.84;104765;1295;67822;-56
2023/09/21 12:46:27;;;;;;;;;;;;;;;39.18;23.79;99866.00;104832;1292;71268;-59
2023/09/21 12:49:13;;;;;;;;;;;;;;;39.29;23.50;99864.18;104790;1292;61157;-60
2023/09/21 12:52:00;;;;;;;;;;;;;;;39.19;23.88;99859.65;104810;1292;61048;-60
2023/09/21 12:54:46;;;;;;;;;;;;;;;39.32;23.87;99856.27;104712;1292;73162;-61
2023/09/21 12:57:35;;;;;;;;;;;;;;;39.26;23.83;99855.18;104736;1292;67364;-62
2023/09/21 13:00:22;;;;;;;;;;;;;;;39.05;23.52;99848.23;104801;1292;71303;-60
2023/09/21 13:03:09;;;;;;;;;;;;;;;38.35;23.52;99845.70;104761;1291;59948;-58
2023/09/21 13:05:55;;;;;;;;;;;;;;;37.74;23.86;99843.33;106021;1292;60122;-58
2023/09/21 13:08:41;;;;;;;;;;;;;;;36.85;24.25;99836.02;105898;1292;74647;-59
2023/09/21 13:11:26;;;;;;;;;;;;;;;35.69;25.00;99836.63;105847;1292;67335;-60
2023/09/21 13:14:12;;;;;;;;;;;;;;;34.58;25.26;99829.27;105913;1292;72538;-59
2023/09/21 13:16:59;;;;;;;;;;;;;;;33.83;26.37;99825.15;106014;1292;59618;-61
2023/09/21 13:19:46;;;;;;;;;;;;;;;33.22;26.34;99826.39;105488;1297;59247;-58
2023/09/21 13:22:34;;;;;;;;;;;;;;;32.68;26.34;99822.03;104616;1295;75687;-59
2023/09/21 13:25:21;;;;;;;;;;;;;;;32.26;26.71;99820.30;104654;1292;67267;-59
2023/09/21 13:28:07;;;;;;;;;;;;;;;31.85;27.11;99816.70;104591;1293;71370;-56
2023/09/21 13:30:53;;;;;;;;;;;;;;;31.46;27.25;99819.50;104538;1294;61333;-56
2023/09/21 13:33:39;;;;;;;;;;;;;;;31.10;27.79;99815.27;104576;1294;61286;-56
2023/09/21 13:36:25;;;;;;;;;;;;;;;30.79;28.12;99807.29;104626;1292;74997;-57
2023/09/21 13:39:12;;;;;;;;;;;;;;;30.65;27.96;99804.56;104650;1297;67323;-56
2023/09/21 13:41:59;;;;;;;;;;;;;;;30.53;29.32;99808.30;104591;1296;72232;-58
2023/09/21 13:44:46;;;;;;;;;;;;;;;30.48;28.55;99801.87;104601;1297;61456;-56
2023/09/21 13:47:33;;;;;;;;;;;;;;;30.41;28.90;99801.64;104621;1293;61349;-54
2023/09/21 13:50:19;;;;;;;;;;;;;;;30.35;29.05;99800.21;104560;1292;75131;-58
2023/09/21 13:53:05;;;;;;;;;;;;;;;30.28;29.58;99797.33;104625;1292;67174;-56
2023/09/21 13:55:52;;;;;;;;;;;;;;;30.24;29.68;99795.55;104609;1292;71301;-55
2023/09/21 13:58:38;;;;;;;;;;;;;;;30.17;29.62;99794.33;104580;1292;61451;-57
2023/09/21 14:01:26;;;;;;;;;;;;;;;30.22;30.00;99796.98;104573;1293;61188;-56
2023/09/21 14:04:12;;;;;;;;;;;;;;;30.11;30.88;99796.23;104651;1292;73282;-57
2023/09/21 14:06:58;;;;;;;;;;;;;;;30.11;31.38;99791.13;104704;1292;69963;-55
2023/09/21 14:09:44;;;;;;;;;;;;;;;30.17;30.80;99786.89;104554;1292;71437;-57